Time;durP1;ratioP1;P1;durP2;ratioP2;P2;SDS_P1;SDS_P2;PMS_P1;PMS_P2;Temp;Humidity;BMP_temperature;BMP_pressure;BME280_temperature;BME280_humidity;BME280_pressure;Samples;Min_cycle;Max_cycle;Signal;HPM_P1;HPM_P2
2023/04/23 00:01:26;;;;;;;35.65;15.88;;;;;;;5.61;100.00;100742.09;4985466;28;20072;-70
2023/04/23 00:03:56;;;;;;;41.08;16.55;;;;;;;5.60;100.00;100738.59;4986740;28;20131;-70
2023/04/23 00:06:25;;;;;;;43.13;17.33;;;;;;;5.61;100.00;100744.72;4987718;28;20116;-71
2023/04/23 00:08:52;;;;;;;41.20;16.90;;;;;;;5.63;100.00;100748.16;5003023;28;20037;-71
2023/04/23 00:11:18;;;;;;;45.95;17.80;;;;;;;5.63;100.00;100737.66;4988361;28;20125;-71
2023/04/23 00:13:46;;;;;;;44.53;17.58;;;;;;;5.63;100.00;100738.53;4990748;28;20033;-71
2023/04/23 00:16:12;;;;;;;37.28;16.23;;;;;;;5.65;100.00;100746.34;4988470;28;20057;-71
2023/04/23 00:18:38;;;;;;;43.53;17.13;;;;;;;5.66;100.00;100737.59;4988622;28;20053;-70
2023/04/23 00:21:03;;;;;;;48.20;17.67;;;;;;;5.66;100.00;100734.97;4988418;28;20033;-71
2023/04/23 00:23:29;;;;;;;47.50;17.42;;;;;;;5.66;100.00;100721.84;4988241;28;20030;-71
2023/04/23 00:25:55;;;;;;;44.08;17.58;;;;;;;5.66;100.00;100727.09;5002971;28;20070;-70
2023/04/23 00:28:20;;;;;;;46.00;18.50;;;;;;;5.65;100.00;100735.84;4988049;28;20598;-71
2023/04/23 00:30:46;;;;;;;47.78;19.27;;;;;;;5.65;100.00;100726.22;4988279;28;20945;-70
2023/04/23 00:33:11;;;;;;;54.33;18.63;;;;;;;5.68;100.00;100730.53;4970136;28;20065;-71
2023/04/23 00:35:38;;;;;;;51.35;19.58;;;;;;;5.68;100.00;100728.75;4988775;28;21613;-71
2023/04/23 00:38:03;;;;;;;52.45;19.02;;;;;;;5.70;100.00;100728.72;5002727;28;20038;-70
2023/04/23 00:40:29;;;;;;;50.28;19.48;;;;;;;5.71;100.00;100730.44;4989394;28;20576;-71
2023/04/23 00:42:55;;;;;;;52.78;19.27;;;;;;;5.70;100.00;100726.94;4988609;28;20044;-71
2023/04/23 00:45:20;;;;;;;55.65;21.15;;;;;;;5.71;100.00;100717.28;4989758;28;20045;-70
2023/04/23 00:47:46;;;;;;;44.97;19.10;;;;;;;5.70;100.00;100710.31;4986137;28;20037;-70
2023/04/23 00:50:12;;;;;;;49.88;19.92;;;;;;;5.70;100.00;100715.56;4984705;28;20041;-70
2023/04/23 00:52:39;;;;;;;58.50;19.95;;;;;;;5.70;100.00;100719.06;4988531;28;20072;-71
2023/04/23 00:55:07;;;;;;;53.08;19.10;;;;;;;5.70;100.00;100712.94;4998183;28;20045;-71
2023/04/23 00:57:35;;;;;;;55.22;20.27;;;;;;;5.68;100.00;100704.25;4985739;28;20121;-71
2023/04/23 01:00:02;;;;;;;54.50;20.02;;;;;;;5.68;100.00;100705.09;4988507;28;21493;-70
2023/04/23 01:02:29;;;;;;;58.97;20.13;;;;;;;5.68;100.00;100707.72;4984824;28;20049;-71
2023/04/23 01:04:56;;;;;;;59.97;20.98;;;;;;;5.68;100.00;100717.38;4987381;28;20754;-70
2023/04/23 01:07:21;;;;;;;52.83;20.05;;;;;;;5.67;100.00;100707.78;4987921;28;20100;-71
2023/04/23 01:09:49;;;;;;;59.45;22.02;;;;;;;5.66;100.00;100709.53;4985704;28;20082;-70
2023/04/23 01:12:16;;;;;;;54.78;22.15;;;;;;;5.66;100.00;100708.69;4988199;28;20046;-71
2023/04/23 01:14:42;;;;;;;55.42;21.50;;;;;;;5.65;100.00;100710.44;4985897;28;20502;-71
2023/04/23 01:17:08;;;;;;;61.85;22.08;;;;;;;5.66;100.00;100711.31;4987641;28;20551;-71
2023/04/23 01:19:35;;;;;;;55.90;21.10;;;;;;;5.65;100.00;100709.56;4986152;28;20073;-71
2023/04/23 01:22:01;;;;;;;55.80;22.02;;;;;;;5.65;100.00;100702.56;4985928;28;20037;-71
2023/04/23 01:24:28;;;;;;;57.95;22.52;;;;;;;5.64;100.00;100705.22;4988271;28;20037;-71
2023/04/23 01:26:54;;;;;;;66.78;24.02;;;;;;;5.64;100.00;100702.59;5003667;28;20117;-71
2023/04/23 01:29:20;;;;;;;55.40;22.45;;;;;;;5.63;100.00;100700.88;4988757;28;20040;-71
2023/04/23 01:31:46;;;;;;;57.35;23.00;;;;;;;5.63;100.00;100706.13;4988185;28;20033;-71
2023/04/23 01:34:12;;;;;;;58.33;23.80;;;;;;;5.63;100.00;100699.13;4987911;28;20037;-71
2023/04/23 01:36:40;;;;;;;66.80;22.40;;;;;;;5.63;100.00;100700.88;5002910;28;20390;-71
2023/04/23 01:39:06;;;;;;;65.13;23.15;;;;;;;5.62;100.00;100705.25;4986262;28;20896;-70
2023/04/23 01:41:32;;;;;;;60.90;23.02;;;;;;;5.61;100.00;100694.81;4987176;28;20177;-71
2023/04/23 01:43:58;;;;;;;61.45;23.08;;;;;;;5.61;100.00;100693.03;4987535;28;20042;-70
2023/04/23 01:46:24;;;;;;;67.85;24.67;;;;;;;5.58;100.00;100687.88;4969969;28;20497;-71
2023/04/23 01:48:49;;;;;;;66.85;24.20;;;;;;;5.58;100.00;100691.34;4986200;28;20041;-71
2023/04/23 01:51:16;;;;;;;67.90;24.70;;;;;;;5.56;100.00;100685.28;4987311;28;20889;-70
2023/04/23 01:53:41;;;;;;;67.03;23.17;;;;;;;5.53;100.00;100688.00;4985118;28;20077;-71
2023/04/23 01:56:08;;;;;;;62.78;23.30;;;;;;;5.47;100.00;100682.03;4988048;28;20121;-70
2023/04/23 01:58:34;;;;;;;63.08;23.05;;;;;;;5.43;100.00;100689.16;4985998;28;20037;-71
2023/04/23 02:00:59;;;;;;;68.78;24.60;;;;;;;5.38;100.00;100680.53;4987560;28;20042;-70
2023/04/23 02:03:25;;;;;;;69.13;23.15;;;;;;;5.36;100.00;100687.59;4987094;28;20042;-71
2023/04/23 02:05:53;;;;;;;72.65;24.73;;;;;;;5.34;100.00;100685.00;4990527;28;20030;-70
2023/04/23 02:08:18;;;;;;;73.05;23.45;;;;;;;5.32;100.00;100678.94;5006176;28;20053;-70
2023/04/23 02:10:44;;;;;;;80.32;27.27;;;;;;;5.34;100.00;100684.16;4988304;28;20054;-71
2023/04/23 02:13:09;;;;;;;100.75;25.70;;;;;;;5.35;100.00;100678.00;4990897;28;20037;-70
2023/04/23 02:15:37;;;;;;;123.80;26.63;;;;;;;5.38;100.00;100677.88;5005872;28;20068;-71
2023/04/23 02:18:03;;;;;;;118.50;27.10;;;;;;;5.43;100.00;100673.38;4990727;28;20033;-70
2023/04/23 02:20:28;;;;;;;122.95;27.27;;;;;;;5.47;100.00;100675.03;4990665;28;20129;-71
2023/04/23 02:22:55;;;;;;;126.47;28.63;;;;;;;5.53;100.00;100671.38;4990841;28;20122;-71
2023/04/23 02:25:20;;;;;;;139.75;29.52;;;;;;;5.57;100.00;100673.88;4988490;28;20049;-71
2023/04/23 02:27:47;;;;;;;128.35;29.02;;;;;;;5.61;100.00;100671.19;4990596;28;20070;-71
2023/04/23 02:30:12;;;;;;;149.20;30.63;;;;;;;5.66;100.00;100664.88;4990032;28;20041;-71
2023/04/23 02:32:38;;;;;;;139.32;31.77;;;;;;;5.70;100.00;100660.41;4988436;28;20844;-71
2023/04/23 02:35:08;;;;;;;137.43;29.58;;;;;;;5.71;100.00;100663.00;4990425;28;20049;-71
2023/04/23 02:37:34;;;;;;;131.93;29.63;;;;;;;5.75;100.00;100669.03;4991452;28;20048;-71
2023/04/23 02:40:00;;;;;;;129.63;29.75;;;;;;;5.78;100.00;100668.09;5005718;28;20483;-71
2023/04/23 02:42:26;;;;;;;131.80;30.75;;;;;;;5.80;100.00;100664.50;4989142;28;20045;-71
2023/04/23 02:44:51;;;;;;;138.77;31.48;;;;;;;5.82;100.00;100664.44;4989455;28;22068;-71
2023/04/23 02:47:17;;;;;;;141.88;30.52;;;;;;;5.81;100.00;100663.59;4990242;28;20048;-71
2023/04/23 02:49:42;;;;;;;153.27;31.15;;;;;;;5.84;100.00;100665.28;4990826;28;22016;-71
2023/04/23 02:52:08;;;;;;;161.45;31.05;;;;;;;5.84;100.00;100650.38;4990628;28;21062;-71
2023/04/23 02:54:35;;;;;;;170.35;31.55;;;;;;;5.86;100.00;100645.06;4990763;28;21086;-71
2023/04/23 02:57:02;;;;;;;141.15;30.92;;;;;;;5.89;100.00;100644.13;4989756;28;20025;-71
2023/04/23 02:59:28;;;;;;;164.15;31.33;;;;;;;5.88;100.00;100648.50;4990552;28;20042;-72
2023/04/23 03:01:53;;;;;;;133.52;31.80;;;;;;;5.91;100.00;100644.94;4990567;28;20033;-70
2023/04/23 03:04:19;;;;;;;153.57;32.60;;;;;;;5.91;100.00;100644.94;4991298;28;20065;-71
2023/04/23 03:06:45;;;;;;;157.70;33.47;;;;;;;5.90;100.00;100646.72;4990786;28;20049;-71
2023/04/23 03:09:11;;;;;;;130.02;32.33;;;;;;;5.92;100.00;100646.66;4990872;28;20033;-71
2023/04/23 03:11:37;;;;;;;161.98;34.22;;;;;;;5.94;100.00;100642.22;4988046;28;20045;-70
2023/04/23 03:14:02;;;;;;;163.73;34.60;;;;;;;5.94;100.00;100636.97;4990951;28;20045;-71
2023/04/23 03:16:30;;;;;;;143.95;32.60;;;;;;;5.96;100.00;100637.78;4987024;28;20052;-71
2023/04/23 03:18:55;;;;;;;136.15;33.67;;;;;;;5.98;100.00;100628.06;4989590;28;20785;-71
2023/04/23 03:21:21;;;;;;;138.20;33.55;;;;;;;6.00;100.00;100621.03;4990332;28;20137;-71
2023/04/23 03:23:47;;;;;;;125.70;35.67;;;;;;;6.04;100.00;100627.09;4973661;28;20026;-71
2023/04/23 03:26:12;;;;;;;141.20;34.97;;;;;;;6.05;100.00;100624.38;4990574;28;20065;-71
2023/04/23 03:28:38;;;;;;;146.52;36.28;;;;;;;6.09;100.00;100626.03;4989698;28;21973;-71
2023/04/23 03:31:04;;;;;;;116.80;34.03;;;;;;;6.13;100.00;100618.03;4989494;28;20172;-71
2023/04/23 03:33:29;;;;;;;130.85;34.50;;;;;;;6.16;100.00;100621.44;4989768;28;22124;-71
2023/04/23 03:35:55;;;;;;;127.00;35.88;;;;;;;6.20;100.00;100619.56;4986640;28;20041;-71
2023/04/23 03:38:20;;;;;;;136.27;37.88;;;;;;;6.22;100.00;100609.88;4986484;28;20073;-71
2023/04/23 03:40:46;;;;;;;137.80;37.05;;;;;;;6.24;100.00;100613.31;4990524;28;20128;-71
2023/04/23 03:43:11;;;;;;;142.23;38.72;;;;;;;6.27;100.00;100610.63;4971152;28;20186;-71
2023/04/23 03:45:37;;;;;;;146.40;37.78;;;;;;;6.30;100.00;100613.13;4988952;28;20026;-71
2023/04/23 03:48:03;;;;;;;145.13;38.22;;;;;;;6.32;100.00;100603.41;4988962;28;20767;-71
2023/04/23 03:50:28;;;;;;;131.20;37.53;;;;;;;6.37;100.00;100608.53;4988900;28;21105;-71
2023/04/23 03:52:54;;;;;;;149.77;40.08;;;;;;;6.38;100.00;100611.13;4988330;28;20050;-71
2023/04/23 03:55:20;;;;;;;138.48;38.55;;;;;;;6.40;100.00;100618.97;4988985;28;20053;-71
2023/04/23 03:57:45;;;;;;;144.50;38.10;;;;;;;6.43;100.00;100612.75;4989784;28;20477;-71
2023/04/23 04:00:11;;;;;;;143.63;39.08;;;;;;;6.46;100.00;100607.38;4989056;28;20599;-71
2023/04/23 04:02:38;;;;;;;143.43;37.28;;;;;;;6.48;100.00;100605.59;4988990;28;20034;-71
2023/04/23 04:05:04;;;;;;;138.05;37.05;;;;;;;6.48;100.00;100606.44;4989486;28;20056;-71
2023/04/23 04:07:30;;;;;;;139.25;36.75;;;;;;;6.49;100.00;100607.31;4989113;28;20037;-71
2023/04/23 04:09:56;;;;;;;141.23;38.10;;;;;;;6.48;100.00;100601.16;4988615;28;20037;-71
2023/04/23 04:12:21;;;;;;;134.45;35.80;;;;;;;6.50;100.00;100593.22;4989561;28;20056;-70
2023/04/23 04:14:47;;;;;;;144.30;38.20;;;;;;;6.50;100.00;100588.81;4989371;28;20515;-71
2023/04/23 04:17:14;;;;;;;127.78;35.85;;;;;;;6.51;100.00;100590.56;4988469;28;20041;-71
2023/04/23 04:19:41;;;;;;;129.77;38.20;;;;;;;6.53;100.00;100593.13;4988684;28;20219;-72
2023/04/23 04:22:08;;;;;;;135.35;38.58;;;;;;;6.54;100.00;100589.56;4983865;28;20045;-71
2023/04/23 04:24:34;;;;;;;123.07;36.53;;;;;;;6.56;100.00;100585.16;4986263;28;20173;-71
2023/04/23 04:27:04;;;;;;;123.03;35.60;;;;;;;6.57;100.00;100576.34;4988408;28;20045;-71
2023/04/23 04:29:30;;;;;;;124.93;34.15;;;;;;;6.59;100.00;100582.41;4988824;28;20934;-71
2023/04/23 04:31:56;;;;;;;123.43;35.13;;;;;;;6.62;100.00;100587.56;5003410;28;20092;-71
2023/04/23 04:34:22;;;;;;;124.00;35.05;;;;;;;6.64;100.00;100579.59;4986772;28;20041;-71
2023/04/23 04:36:47;;;;;;;135.60;35.28;;;;;;;6.64;100.00;100580.47;5003365;28;20531;-71
2023/04/23 04:39:13;;;;;;;120.47;36.03;;;;;;;6.66;100.00;100583.06;4988552;28;20037;-71
2023/04/23 04:41:40;;;;;;;125.50;34.42;;;;;;;6.67;100.00;100584.78;4988880;28;20420;-71
2023/04/23 04:44:07;;;;;;;119.28;34.70;;;;;;;6.65;100.00;100576.94;4982808;28;20053;-71
2023/04/23 04:46:33;;;;;;;118.00;34.45;;;;;;;6.64;100.00;100564.69;4986232;28;20034;-72
2023/04/23 04:48:59;;;;;;;112.25;34.03;;;;;;;6.65;100.00;100560.31;4988693;28;20968;-71
2023/04/23 04:51:25;;;;;;;115.82;34.33;;;;;;;6.63;100.00;100557.72;4987705;28;20034;-71
2023/04/23 04:53:51;;;;;;;112.20;32.88;;;;;;;6.64;100.00;100559.44;4987610;28;21213;-71
2023/04/23 04:56:17;;;;;;;128.73;34.95;;;;;;;6.65;100.00;100561.16;4987492;28;20691;-71
2023/04/23 04:58:43;;;;;;;107.57;33.28;;;;;;;6.66;100.00;100562.88;4985001;28;20042;-71
2023/04/23 05:01:09;;;;;;;106.63;33.65;;;;;;;6.69;100.00;100559.28;4986887;28;20022;-71
2023/04/23 05:03:35;;;;;;;120.60;33.55;;;;;;;6.70;100.00;100561.00;5001664;28;20123;-71
2023/04/23 05:06:01;;;;;;;115.25;33.55;;;;;;;6.71;100.00;100559.22;4985829;28;20053;-72
2023/04/23 05:08:26;;;;;;;99.68;31.67;;;;;;;6.73;100.00;100557.41;4987356;28;20034;-72
2023/04/23 05:10:55;;;;;;;107.47;34.15;;;;;;;6.76;100.00;100559.94;4986859;28;20556;-71
2023/04/23 05:13:21;;;;;;;101.38;33.38;;;;;;;6.78;100.00;100552.84;4986717;28;20074;-71
2023/04/23 05:15:46;;;;;;;103.88;32.42;;;;;;;6.79;100.00;100558.06;4987192;28;20140;-71
2023/04/23 05:18:12;;;;;;;108.82;33.13;;;;;;;6.78;100.00;100552.84;4986891;28;20042;-71
2023/04/23 05:20:38;;;;;;;95.55;31.80;;;;;;;6.77;100.00;100557.25;4987303;28;20093;-71
2023/04/23 05:23:03;;;;;;;97.13;30.55;;;;;;;6.77;100.00;100559.88;4998398;28;20033;-71
2023/04/23 05:25:29;;;;;;;96.93;32.70;;;;;;;6.78;100.00;100571.28;5001300;28;20505;-71
2023/04/23 05:27:56;;;;;;;106.30;32.33;;;;;;;6.78;100.00;100573.91;4986823;28;20470;-71
2023/04/23 05:30:22;;;;;;;100.50;31.27;;;;;;;6.82;100.00;100574.66;4984998;28;20080;-71
2023/04/23 05:32:48;;;;;;;95.35;31.08;;;;;;;6.84;100.00;100578.97;4984751;28;21873;-71
2023/04/23 05:35:13;;;;;;;96.18;31.23;;;;;;;6.87;100.00;100568.31;4987854;28;20061;-72
2023/04/23 05:37:40;;;;;;;98.82;30.63;;;;;;;6.89;100.00;100563.00;4986683;28;20042;-71
2023/04/23 05:40:06;;;;;;;102.75;34.20;;;;;;;6.91;100.00;100567.31;4989880;28;20212;-72
2023/04/23 05:42:34;;;;;;;92.50;32.17;;;;;;;6.92;100.00;100571.66;4991083;28;20064;-71
2023/04/23 05:44:59;;;;;;;100.10;30.67;;;;;;;6.95;100.00;100577.72;4991311;28;20038;-71
2023/04/23 05:47:25;;;;;;;88.35;30.17;;;;;;;6.93;100.00;100568.09;4990730;28;20042;-71
2023/04/23 05:49:51;;;;;;;90.28;29.52;;;;;;;6.96;100.00;100567.13;4989317;28;20185;-71
2023/04/23 05:52:17;;;;;;;84.57;28.33;;;;;;;6.97;100.00;100568.00;4990600;28;20684;-71
2023/04/23 05:54:43;;;;;;;83.65;29.60;;;;;;;6.98;100.00;100567.09;4987849;28;20046;-71
2023/04/23 05:57:08;;;;;;;84.38;28.65;;;;;;;6.99;100.00;100563.53;4990947;28;20711;-71
2023/04/23 05:59:34;;;;;;;82.55;29.20;;;;;;;7.03;100.00;100565.16;4990389;28;20489;-71
2023/04/23 06:01:59;;;;;;;74.90;27.25;;;;;;;7.09;100.00;100572.84;4990571;28;20037;-71
2023/04/23 06:04:25;;;;;;;78.38;29.00;;;;;;;7.19;100.00;100561.06;4990380;28;20069;-71
2023/04/23 06:06:51;;;;;;;86.03;28.77;;;;;;;7.30;100.00;100562.47;4990533;28;20113;-71
2023/04/23 06:09:16;;;;;;;80.20;29.70;;;;;;;7.39;100.00;100562.13;4990233;28;20127;-71
2023/04/23 06:11:42;;;;;;;78.85;28.02;;;;;;;7.47;100.00;100560.06;4989133;28;20489;-71
2023/04/23 06:14:07;;;;;;;81.25;29.98;;;;;;;7.55;100.00;100566.81;4989525;28;20038;-71
2023/04/23 06:16:33;;;;;;;86.40;29.35;;;;;;;7.60;100.00;100570.16;4990602;28;20488;-71
2023/04/23 06:18:59;;;;;;;83.30;28.75;;;;;;;7.65;100.00;100565.56;4989493;28;20117;-71
2023/04/23 06:21:26;;;;;;;75.80;28.23;;;;;;;7.71;100.00;100559.19;4988166;28;20297;-71
2023/04/23 06:23:51;;;;;;;78.07;29.70;;;;;;;7.75;100.00;100566.09;4992893;28;20058;-72
2023/04/23 06:26:17;;;;;;;84.07;30.17;;;;;;;7.80;100.00;100560.63;4987734;28;20169;-71
2023/04/23 06:28:44;;;;;;;76.85;28.60;;;;;;;7.86;100.00;100555.97;5005500;28;20030;-71
2023/04/23 06:31:10;;;;;;;80.68;29.20;;;;;;;7.92;100.00;100560.16;4987628;28;20054;-71
2023/04/23 06:33:36;;;;;;;73.65;27.90;;;;;;;7.98;100.00;100553.78;4989226;28;20567;-71
2023/04/23 06:36:02;;;;;;;79.20;29.85;;;;;;;8.05;100.00;100555.25;4990065;28;20038;-71
2023/04/23 06:38:28;;;;;;;78.35;27.63;;;;;;;8.10;100.00;100553.31;4989319;28;20042;-71
2023/04/23 06:40:53;;;;;;;72.47;30.27;;;;;;;8.15;100.00;100545.19;5001404;28;20524;-72
2023/04/23 06:43:19;;;;;;;82.65;29.65;;;;;;;8.22;100.00;100546.66;4989475;28;20034;-71
2023/04/23 06:45:44;;;;;;;78.45;29.77;;;;;;;8.27;100.00;100531.53;4987608;28;20076;-71
2023/04/23 06:48:10;;;;;;;80.03;30.15;;;;;;;8.33;100.00;100524.28;4988561;28;20034;-71
2023/04/23 06:50:35;;;;;;;70.38;28.10;;;;;;;8.38;100.00;100530.22;5003608;28;20026;-71
2023/04/23 06:53:01;;;;;;;73.93;28.73;;;;;;;8.42;100.00;100530.03;4990178;28;20097;-71
2023/04/23 06:55:27;;;;;;;74.15;28.45;;;;;;;8.49;100.00;100533.28;4972105;28;20074;-71
2023/04/23 06:57:54;;;;;;;75.70;28.52;;;;;;;8.54;100.00;100533.97;5005404;28;20037;-71
2023/04/23 07:00:22;;;;;;;64.72;26.48;;;;;;;8.60;100.00;100535.50;5004928;28;20120;-72
2023/04/23 07:02:47;;;;;;;63.75;27.60;;;;;;;8.67;100.00;100536.09;4973393;28;20145;-72
2023/04/23 07:05:13;;;;;;;67.80;26.77;;;;;;;8.74;100.00;100534.91;4985013;28;20040;-71
2023/04/23 07:07:41;;;;;;;68.88;26.70;;;;;;;8.81;100.00;100535.50;5004514;28;20042;-72
2023/04/23 07:10:08;;;;;;;61.20;25.77;;;;;;;8.85;100.00;100530.94;4999901;28;20038;-72
2023/04/23 07:12:35;;;;;;;69.43;26.90;;;;;;;8.89;100.00;100527.25;4989780;28;20038;-71
2023/04/23 07:15:01;;;;;;;61.30;26.58;;;;;;;8.93;100.00;100527.06;5003685;28;20120;-72
2023/04/23 07:17:27;;;;;;;57.92;25.15;;;;;;;8.99;100.00;100517.16;4990572;28;20649;-71
2023/04/23 07:19:52;;;;;;;62.80;26.58;;;;;;;9.07;100.00;100512.38;4989090;28;20064;-72
2023/04/23 07:22:18;;;;;;;58.58;24.05;;;;;;;9.20;100.00;100508.28;4989396;28;20570;-72
2023/04/23 07:24:43;;;;;;;56.50;24.63;;;;;;;9.33;100.00;100498.00;4988597;28;20033;-72
2023/04/23 07:27:09;;;;;;;55.42;23.73;;;;;;;9.41;100.00;100504.75;4990530;28;20025;-72
2023/04/23 07:29:35;;;;;;;55.10;24.27;;;;;;;9.47;100.00;100501.78;4985836;28;20038;-71
2023/04/23 07:32:00;;;;;;;51.50;22.85;;;;;;;9.50;100.00;100506.94;4989251;28;20041;-72
2023/04/23 07:34:26;;;;;;;49.67;23.10;;;;;;;9.58;100.00;100506.59;4989162;28;20120;-72
2023/04/23 07:36:52;;;;;;;49.95;22.38;;;;;;;9.68;100.00;100512.28;4989949;28;20045;-72
2023/04/23 07:39:17;;;;;;;51.50;22.63;;;;;;;9.84;100.00;100510.66;4990193;28;20583;-72
2023/04/23 07:41:43;;;;;;;47.90;22.55;;;;;;;9.99;100.00;100502.91;4970200;28;20038;-72
2023/04/23 07:44:09;;;;;;;52.78;22.75;;;;;;;10.17;100.00;100515.22;4980559;28;20050;-72
2023/04/23 07:46:40;;;;;;;45.80;22.33;;;;;;;10.35;100.00;100514.41;4988410;28;20045;-72
2023/04/23 07:49:06;;;;;;;43.13;21.65;;;;;;;10.43;100.00;100510.47;4971270;28;20065;-72
2023/04/23 07:51:35;;;;;;;43.75;20.63;;;;;;;10.57;100.00;100512.41;4988430;28;20042;-72
2023/04/23 07:54:01;;;;;;;44.83;20.17;;;;;;;10.75;100.00;100514.19;5001186;28;20071;-71
2023/04/23 07:56:32;;;;;;;45.20;20.40;;;;;;;10.96;100.00;100509.59;4989092;28;20038;-72
2023/04/23 07:58:58;;;;;;;42.28;21.67;;;;;;;11.10;100.00;100514.13;4987162;28;20038;-72
2023/04/23 08:01:24;;;;;;;40.13;20.17;;;;;;;11.31;100.00;100498.91;4999293;28;20698;-72
2023/04/23 08:03:50;;;;;;;39.42;18.70;;;;;;;11.51;100.00;100504.91;4995719;28;20084;-72
2023/04/23 08:06:17;;;;;;;34.88;18.85;;;;;;;11.68;100.00;100499.50;4988714;28;20037;-72
2023/04/23 08:08:43;;;;;;;33.17;18.70;;;;;;;11.84;100.00;100495.16;5002493;28;20072;-72
2023/04/23 08:11:09;;;;;;;35.63;18.20;;;;;;;11.99;100.00;100498.75;5000057;28;20152;-72
2023/04/23 08:13:37;;;;;;;37.10;18.27;;;;;;;12.06;100.00;100500.13;4985461;28;20038;-72
2023/04/23 08:16:03;;;;;;;34.83;17.48;;;;;;;12.17;100.00;100499.53;4985558;28;20144;-72
2023/04/23 08:18:29;;;;;;;31.10;16.67;;;;;;;12.21;100.00;100495.75;4989061;28;20061;-72
2023/04/23 08:20:55;;;;;;;30.50;16.92;;;;;;;12.30;100.00;100481.94;4987701;28;20493;-72
2023/04/23 08:23:21;;;;;;;32.10;16.80;;;;;;;12.40;100.00;100479.59;4986427;28;20410;-72
2023/04/23 08:25:46;;;;;;;28.13;15.52;;;;;;;12.50;100.00;100479.91;4988001;28;20034;-73
2023/04/23 08:28:12;;;;;;;27.45;15.52;;;;;;;12.68;100.00;100480.59;4971633;28;20061;-74
2023/04/23 08:30:37;;;;;;;28.58;16.30;;;;;;;12.96;100.00;100483.41;4994376;28;20044;-73
2023/04/23 08:33:03;;;;;;;28.17;16.10;;;;;;;13.13;100.00;100480.53;4978631;28;20319;-73
2023/04/23 08:35:28;;;;;;;28.38;15.35;;;;;;;13.29;100.00;100471.63;4980607;28;20034;-73
2023/04/23 08:37:54;;;;;;;22.55;13.73;;;;;;;13.29;100.00;100471.63;4994855;28;20030;-74
2023/04/23 08:40:20;;;;;;;20.15;11.77;;;;;;;13.27;100.00;100476.16;4982534;28;20749;-72
2023/04/23 08:42:54;;;;;;;19.50;11.65;;;;;;;13.43;100.00;100476.94;4979458;28;20142;-72
2023/04/23 08:45:20;;;;;;;20.58;11.85;;;;;;;13.49;100.00;100480.16;4979117;28;20034;-73
2023/04/23 08:47:46;;;;;;;19.05;11.52;;;;;;;13.54;100.00;100486.91;4979815;28;20607;-72
2023/04/23 08:50:16;;;;;;;20.10;11.23;;;;;;;13.67;100.00;100486.97;4977344;28;20103;-72
2023/04/23 08:52:48;;;;;;;18.15;10.52;;;;;;;13.87;100.00;100487.50;4982090;28;20124;-73
2023/04/23 08:55:14;;;;;;;17.45;10.10;;;;;;;14.07;100.00;100494.19;4981411;28;21086;-73
2023/04/23 08:57:43;;;;;;;15.30;9.57;;;;;;;14.17;100.00;100488.25;4977388;28;20030;-73
2023/04/23 09:00:09;;;;;;;16.27;8.75;;;;;;;14.13;100.00;100492.91;4979799;28;20042;-74
2023/04/23 09:02:39;;;;;;;12.55;7.50;;;;;;;14.21;100.00;100495.06;4977826;28;20042;-73
2023/04/23 09:05:05;;;;;;;14.18;8.18;;;;;;;14.33;100.00;100485.41;4978362;28;20030;-73
2023/04/23 09:07:32;;;;;;;10.38;6.90;;;;;;;14.37;100.00;100489.56;4979376;28;20030;-74
2023/04/23 09:09:58;;;;;;;9.55;6.10;;;;;;;14.31;100.00;100489.97;4980651;28;20563;-74
2023/04/23 09:12:24;;;;;;;9.70;6.10;;;;;;;14.35;100.00;100483.50;4979573;28;20485;-72
2023/04/23 09:14:52;;;;;;;7.70;5.38;;;;;;;14.36;100.00;100480.72;4977612;28;20117;-73
2023/04/23 09:17:18;;;;;;;10.75;6.20;;;;;;;14.42;100.00;100484.78;4977134;28;20145;-73
2023/04/23 09:19:45;;;;;;;12.73;6.78;;;;;;;14.60;100.00;100484.50;4978615;28;20594;-72
2023/04/23 09:22:11;;;;;;;11.98;7.40;;;;;;;14.61;100.00;100483.53;4982476;28;20046;-73
2023/04/23 09:24:42;;;;;;;13.55;7.45;;;;;;;14.57;100.00;100474.91;4980878;28;20121;-74
2023/04/23 09:27:07;;;;;;;10.85;6.50;;;;;;;14.60;100.00;100479.16;4979377;28;22697;-73
2023/04/23 09:29:33;;;;;;;10.25;6.28;;;;;;;14.68;100.00;100479.50;4975489;28;20046;-74
2023/04/23 09:32:07;;;;;;;11.52;6.32;;;;;;;14.76;100.00;100481.69;4980239;28;20042;-75
2023/04/23 09:34:35;;;;;;;11.30;6.80;;;;;;;14.74;100.00;100476.44;4977723;28;20111;-73
2023/04/23 09:37:02;;;;;;;10.15;6.50;;;;;;;14.85;100.00;100466.84;4980989;28;20034;-73
2023/04/23 09:39:28;;;;;;;12.20;6.47;;;;;;;14.91;100.00;100474.41;4979743;28;20120;-72
2023/04/23 09:42:02;;;;;;;11.32;6.30;;;;;;;15.01;100.00;100472.81;4980042;28;20152;-73
2023/04/23 09:44:30;;;;;;;9.50;6.43;;;;;;;14.82;100.00;100467.06;4975975;28;20194;-74
2023/04/23 09:46:56;;;;;;;10.85;6.72;;;;;;;14.83;100.00;100476.75;4993081;28;21121;-74
2023/04/23 09:49:22;;;;;;;9.73;6.07;;;;;;;14.97;100.00;100476.66;4981651;28;20048;-73
2023/04/23 09:51:48;;;;;;;10.90;6.15;;;;;;;15.12;100.00;100473.84;4982434;28;20046;-73
2023/04/23 09:54:22;;;;;;;10.32;5.63;;;;;;;15.22;100.00;100474.94;4983393;28;21342;-74
2023/04/23 09:56:55;;;;;;;11.02;6.20;;;;;;;15.24;100.00;100472.16;4981492;28;20038;-74
2023/04/23 09:59:29;;;;;;;9.02;5.68;;;;;;;15.52;100.00;100479.00;4990616;28;20059;-74
2023/04/23 10:01:55;;;;;;;9.50;5.97;;;;;;;15.74;100.00;100482.78;4981209;28;20106;-74
2023/04/23 10:04:22;;;;;;;11.13;6.28;;;;;;;15.84;100.00;100466.94;4983305;28;20096;-73
2023/04/23 10:06:54;;;;;;;9.75;5.78;;;;;;;15.79;100.00;100469.13;4981058;28;20034;-73
2023/04/23 10:09:23;;;;;;;8.63;5.40;;;;;;;15.80;100.00;100474.31;4981633;28;20069;-75
2023/04/23 10:11:56;;;;;;;8.85;4.80;;;;;;;15.84;100.00;100472.28;4977349;28;20666;-74
2023/04/23 10:14:23;;;;;;;6.88;4.32;;;;;;;15.79;100.00;100471.78;4978321;28;20463;-73
2023/04/23 10:16:57;;;;;;;8.85;5.18;;;;;;;15.69;100.00;100466.28;4982307;28;20042;-73
2023/04/23 10:19:23;;;;;;;7.88;4.75;;;;;;;15.69;100.00;100468.94;4979294;28;20050;-72
2023/04/23 10:21:54;;;;;;;8.90;4.35;;;;;;;15.64;100.00;100465.75;4979224;28;20049;-72
2023/04/23 10:24:23;;;;;;;10.25;4.93;;;;;;;15.49;100.00;100457.91;4973120;28;20893;-73
2023/04/23 10:26:50;;;;;;;7.72;4.10;;;;;;;15.48;100.00;100464.22;4995537;28;20100;-72
2023/04/23 10:29:17;;;;;;;7.60;3.70;;;;;;;15.51;100.00;100463.13;4974625;28;20103;-74
2023/04/23 10:31:44;;;;;;;4.57;2.75;;;;;;;15.52;100.00;100457.66;4976337;28;20134;-74
2023/04/23 10:34:10;;;;;;;6.50;3.22;;;;;;;15.52;100.00;100462.16;4962780;28;20040;-73
2023/04/23 10:36:38;;;;;;;4.97;2.95;;;;;;;15.56;100.00;100460.97;4976818;28;20033;-72
2023/04/23 10:39:07;;;;;;;5.15;2.65;;;;;;;15.58;100.00;100457.22;4978827;28;20037;-72
2023/04/23 10:41:36;;;;;;;3.90;2.20;;;;;;;15.54;100.00;100466.44;4994624;28;20061;-72
2023/04/23 10:44:03;;;;;;;3.80;2.20;;;;;;;15.58;100.00;100454.56;4985379;28;20121;-71
2023/04/23 10:46:33;;;;;;;6.13;2.50;;;;;;;15.69;100.00;100461.78;4981071;28;20673;-74
2023/04/23 10:49:06;;;;;;;4.63;1.90;;;;;;;15.77;100.00;100452.34;4996667;28;20037;-71
2023/04/23 10:51:35;;;;;;;3.70;1.67;;;;;;;15.66;100.00;100447.81;4989178;28;20315;-72
2023/04/23 10:54:04;;;;;;;3.33;1.60;;;;;;;15.72;100.00;100444.69;4979652;28;20044;-71
2023/04/23 10:56:30;;;;;;;2.47;1.40;;;;;;;15.80;100.00;100442.31;4998309;28;20078;-72
2023/04/23 10:58:56;;;;;;;3.38;1.70;;;;;;;15.83;100.00;100444.75;4977808;28;20453;-71
2023/04/23 11:01:29;;;;;;;3.53;1.73;;;;;;;15.81;100.00;100435.16;4957864;28;20030;-76
2023/04/23 11:03:54;;;;;;;;;;;;;;;15.83;97.57;100435.88;4980323;28;20030;-75